AEE980 LGAV-LGIR
Flight info
| Callsign | AEE980 |
|---|---|
| Flight time | 0h 41m |
| Altitude | 25000 |
| Route | KEA UL607 GIVIS T514 XAVIS |
| Aircraft | A320/M-SDE3FGHIRWY/LB1 |
Departure
| Time | 2026-05-05 20:24 |
|---|---|
| Airport | Athens Eleftherios Venizelos International Airport (LGAV) |
Arrival
| Time | 2026-05-05 21:05 |
|---|---|
| Airport | Heraklion International Nikos Kazantzakis Airport (LGIR) |
| Time | Latitude | Longitude | Altitude | Speed | Heading |
|---|---|---|---|---|---|
| 2026-05-05 19:59 | 37.94088 | 23.95415 | 300 ft | 0 kts | 218° |
| 2026-05-05 20:03 | 37.94112 | 23.95374 | 300 ft | 0 kts | 218° |
| 2026-05-05 20:15 | 37.94114 | 23.95376 | 300 ft | 2 kts | 218° |
| 2026-05-05 20:15 | 37.94134 | 23.95395 | 302 ft | 4 kts | 215° |
| 2026-05-05 20:16 | 37.94157 | 23.95414 | 300 ft | 4 kts | 210° |
| 2026-05-05 20:16 | 37.94181 | 23.95430 | 300 ft | 4 kts | 197° |
| 2026-05-05 20:16 | 37.94204 | 23.95432 | 300 ft | 4 kts | 138° |
| 2026-05-05 20:16 | 37.94208 | 23.95429 | 304 ft | 0 kts | 127° |
| 2026-05-05 20:18 | 37.94204 | 23.95435 | 300 ft | 2 kts | 127° |
| 2026-05-05 20:19 | 37.94187 | 23.95463 | 300 ft | 5 kts | 127° |
| 2026-05-05 20:19 | 37.94158 | 23.95513 | 302 ft | 9 kts | 127° |
| 2026-05-05 20:19 | 37.94114 | 23.95586 | 299 ft | 12 kts | 127° |
| 2026-05-05 20:19 | 37.94098 | 23.95699 | 297 ft | 15 kts | 60° |
| 2026-05-05 20:20 | 37.94188 | 23.95790 | 300 ft | 18 kts | 36° |
| 2026-05-05 20:20 | 37.94298 | 23.95877 | 300 ft | 20 kts | 28° |
| 2026-05-05 20:20 | 37.94403 | 23.95998 | 298 ft | 22 kts | 39° |
| 2026-05-05 20:20 | 37.94532 | 23.96117 | 299 ft | 24 kts | 36° |
| 2026-05-05 20:21 | 37.94672 | 23.96247 | 302 ft | 26 kts | 37° |
| 2026-05-05 20:21 | 37.94820 | 23.96390 | 301 ft | 28 kts | 37° |
| 2026-05-05 20:21 | 37.94978 | 23.96540 | 304 ft | 29 kts | 37° |
| 2026-05-05 20:21 | 37.95136 | 23.96692 | 303 ft | 29 kts | 37° |
| 2026-05-05 20:22 | 37.95287 | 23.96850 | 303 ft | 24 kts | 64° |
| 2026-05-05 20:22 | 37.95246 | 23.96969 | 308 ft | 6 kts | 127° |
| 2026-05-05 20:22 | 37.95244 | 23.96971 | 308 ft | 0 kts | 127° |
| 2026-05-05 20:22 | 37.95232 | 23.96991 | 312 ft | 8 kts | 133° |
| 2026-05-05 20:23 | 37.95150 | 23.96979 | 310 ft | 19 kts | 208° |
| 2026-05-05 20:23 | 37.94932 | 23.96784 | 308 ft | 72 kts | 218° |
| 2026-05-05 20:23 | 37.94352 | 23.96226 | 287 ft | 134 kts | 217° |
| 2026-05-05 20:23 | 37.93478 | 23.95398 | 310 ft | 176 kts | 216° |
| 2026-05-05 20:24 | 37.92510 | 23.94508 | 1016 ft | 167 kts | 216° |
| 2026-05-05 20:24 | 37.91569 | 23.93670 | 1743 ft | 165 kts | 215° |
| 2026-05-05 20:24 | 37.90527 | 23.92926 | 2169 ft | 185 kts | 208° |
| 2026-05-05 20:24 | 37.89297 | 23.92171 | 2503 ft | 208 kts | 207° |
| 2026-05-05 20:25 | 37.87912 | 23.91323 | 2838 ft | 234 kts | 207° |
| 2026-05-05 20:25 | 37.86397 | 23.90371 | 3489 ft | 249 kts | 207° |
| 2026-05-05 20:25 | 37.84837 | 23.89365 | 4384 ft | 255 kts | 208° |
| 2026-05-05 20:25 | 37.83241 | 23.88317 | 5302 ft | 262 kts | 208° |
| 2026-05-05 20:26 | 37.81471 | 23.87584 | 5929 ft | 280 kts | 185° |
| 2026-05-05 20:26 | 37.79531 | 23.87949 | 6751 ft | 287 kts | 155° |
| 2026-05-05 20:26 | 37.77889 | 23.89390 | 7621 ft | 289 kts | 135° |
| 2026-05-05 20:26 | 37.76371 | 23.91072 | 8531 ft | 292 kts | 136° |
| 2026-05-05 20:27 | 37.74805 | 23.92753 | 9460 ft | 297 kts | 137° |
| 2026-05-05 20:27 | 37.73209 | 23.94440 | 10288 ft | 304 kts | 137° |
| 2026-05-05 20:27 | 37.71518 | 23.96224 | 10602 ft | 328 kts | 137° |
| 2026-05-05 20:27 | 37.69712 | 23.98134 | 10978 ft | 346 kts | 137° |
| 2026-05-05 20:28 | 37.67865 | 24.00090 | 11651 ft | 353 kts | 138° |
| 2026-05-05 20:28 | 37.65964 | 24.02103 | 12384 ft | 359 kts | 138° |
| 2026-05-05 20:28 | 37.64032 | 24.04151 | 13137 ft | 364 kts | 138° |
| 2026-05-05 20:28 | 37.62077 | 24.06223 | 13874 ft | 370 kts | 138° |
| 2026-05-05 20:29 | 37.60088 | 24.08327 | 14519 ft | 375 kts | 139° |
| 2026-05-05 20:29 | 37.58067 | 24.10467 | 15148 ft | 381 kts | 139° |
| 2026-05-05 20:29 | 37.56021 | 24.12634 | 15758 ft | 387 kts | 139° |
| 2026-05-05 20:29 | 37.53965 | 24.14808 | 16363 ft | 392 kts | 139° |
| 2026-05-05 20:30 | 37.51854 | 24.17038 | 16964 ft | 398 kts | 139° |
| 2026-05-05 20:30 | 37.49712 | 24.19299 | 17559 ft | 404 kts | 139° |
| 2026-05-05 20:30 | 37.47535 | 24.21598 | 18152 ft | 410 kts | 139° |
| 2026-05-05 20:30 | 37.45334 | 24.23923 | 18689 ft | 415 kts | 139° |
| 2026-05-05 20:31 | 37.43132 | 24.26249 | 19247 ft | 420 kts | 139° |
| 2026-05-05 20:31 | 37.40869 | 24.28632 | 19838 ft | 425 kts | 140° |
| 2026-05-05 20:31 | 37.38589 | 24.31029 | 20424 ft | 429 kts | 140° |
| 2026-05-05 20:31 | 37.36278 | 24.33455 | 21003 ft | 434 kts | 140° |
| 2026-05-05 20:32 | 37.33943 | 24.35907 | 21568 ft | 439 kts | 140° |
| 2026-05-05 20:32 | 37.31584 | 24.38379 | 22127 ft | 444 kts | 140° |
| 2026-05-05 20:32 | 37.29230 | 24.40844 | 22679 ft | 448 kts | 140° |
| 2026-05-05 20:32 | 37.26825 | 24.43368 | 23223 ft | 453 kts | 140° |
| 2026-05-05 20:33 | 37.24387 | 24.45922 | 23752 ft | 457 kts | 140° |
| 2026-05-05 20:33 | 37.21925 | 24.48498 | 24193 ft | 462 kts | 140° |
| 2026-05-05 20:33 | 37.19444 | 24.51091 | 24659 ft | 466 kts | 140° |
| 2026-05-05 20:33 | 37.16936 | 24.53710 | 24972 ft | 469 kts | 140° |
| 2026-05-05 20:34 | 37.14424 | 24.56332 | 25063 ft | 469 kts | 141° |
| 2026-05-05 20:34 | 37.11944 | 24.58917 | 25070 ft | 468 kts | 141° |
| 2026-05-05 20:34 | 37.09431 | 24.61531 | 25069 ft | 468 kts | 141° |
| 2026-05-05 20:34 | 37.06926 | 24.64134 | 25074 ft | 468 kts | 141° |
| 2026-05-05 20:35 | 37.04415 | 24.66743 | 25070 ft | 468 kts | 141° |
| 2026-05-05 20:35 | 37.01904 | 24.69353 | 25080 ft | 468 kts | 141° |
| 2026-05-05 20:35 | 37.00239 | 24.71083 | 25073 ft | 468 kts | 141° |
| 2026-05-05 20:35 | 36.96912 | 24.74536 | 25080 ft | 469 kts | 141° |
| 2026-05-05 20:36 | 36.94400 | 24.77134 | 25076 ft | 468 kts | 141° |
| 2026-05-05 20:36 | 36.91834 | 24.79661 | 25076 ft | 468 kts | 146° |
| 2026-05-05 20:36 | 36.89084 | 24.81847 | 25077 ft | 467 kts | 149° |
| 2026-05-05 20:36 | 36.86319 | 24.83987 | 25076 ft | 467 kts | 149° |
| 2026-05-05 20:37 | 36.83584 | 24.86100 | 25079 ft | 467 kts | 149° |
| 2026-05-05 20:37 | 36.81710 | 24.87547 | 25072 ft | 467 kts | 150° |
| 2026-05-05 20:37 | 36.78036 | 24.90377 | 25076 ft | 468 kts | 150° |
| 2026-05-05 20:37 | 36.75262 | 24.92513 | 25078 ft | 468 kts | 150° |
| 2026-05-05 20:38 | 36.72481 | 24.94657 | 25072 ft | 468 kts | 150° |
| 2026-05-05 20:38 | 36.69744 | 24.96769 | 25073 ft | 468 kts | 150° |
| 2026-05-05 20:38 | 36.66973 | 24.98903 | 25077 ft | 468 kts | 150° |
| 2026-05-05 20:38 | 36.64185 | 25.01045 | 25077 ft | 469 kts | 150° |
| 2026-05-05 20:39 | 36.61403 | 25.03174 | 25083 ft | 469 kts | 150° |
| 2026-05-05 20:39 | 36.58620 | 25.05300 | 25083 ft | 469 kts | 150° |
| 2026-05-05 20:39 | 36.55835 | 25.07426 | 25087 ft | 469 kts | 150° |
| 2026-05-05 20:39 | 36.53079 | 25.09529 | 25088 ft | 469 kts | 150° |
| 2026-05-05 20:40 | 36.51200 | 25.10964 | 25087 ft | 469 kts | 150° |
| 2026-05-05 20:40 | 36.47509 | 25.13782 | 25091 ft | 469 kts | 150° |
| 2026-05-05 20:40 | 36.44722 | 25.15910 | 25094 ft | 470 kts | 150° |
| 2026-05-05 20:40 | 36.42872 | 25.17322 | 25094 ft | 470 kts | 150° |
| 2026-05-05 20:41 | 36.40080 | 25.19450 | 25095 ft | 470 kts | 150° |
| 2026-05-05 20:41 | 36.37291 | 25.21572 | 25096 ft | 470 kts | 150° |
| 2026-05-05 20:41 | 36.34504 | 25.23687 | 25093 ft | 470 kts | 150° |
| 2026-05-05 20:41 | 36.31702 | 25.25815 | 25084 ft | 471 kts | 150° |
| 2026-05-05 20:42 | 36.28939 | 25.27914 | 25078 ft | 471 kts | 150° |
| 2026-05-05 20:42 | 36.26142 | 25.30033 | 25077 ft | 472 kts | 150° |
| 2026-05-05 20:42 | 36.23338 | 25.32155 | 25074 ft | 472 kts | 150° |
| 2026-05-05 20:42 | 36.20527 | 25.34278 | 25081 ft | 472 kts | 150° |
| 2026-05-05 20:43 | 36.17721 | 25.36397 | 25079 ft | 473 kts | 150° |
| 2026-05-05 20:43 | 36.14905 | 25.38524 | 25079 ft | 473 kts | 150° |
| 2026-05-05 20:43 | 36.12025 | 25.40493 | 25080 ft | 471 kts | 159° |
| 2026-05-05 20:43 | 36.08954 | 25.41865 | 25081 ft | 468 kts | 165° |
| 2026-05-05 20:44 | 36.05860 | 25.43108 | 25081 ft | 468 kts | 165° |
| 2026-05-05 20:44 | 36.02757 | 25.44350 | 25082 ft | 468 kts | 165° |
| 2026-05-05 20:44 | 35.99696 | 25.45576 | 25085 ft | 468 kts | 165° |
| 2026-05-05 20:44 | 35.96589 | 25.46823 | 25084 ft | 468 kts | 165° |
| 2026-05-05 20:45 | 35.90369 | 25.49325 | 25083 ft | 468 kts | 165° |
| 2026-05-05 20:45 | 35.87273 | 25.50571 | 25082 ft | 469 kts | 165° |
| 2026-05-05 20:45 | 35.84173 | 25.51818 | 25084 ft | 469 kts | 165° |
| 2026-05-05 20:46 | 35.81068 | 25.53062 | 25085 ft | 469 kts | 165° |
| 2026-05-05 20:46 | 35.78005 | 25.54285 | 25085 ft | 469 kts | 165° |
| 2026-05-05 20:46 | 35.74895 | 25.55526 | 25082 ft | 469 kts | 165° |
| 2026-05-05 20:46 | 35.71797 | 25.56765 | 25079 ft | 469 kts | 164° |
| 2026-05-05 20:47 | 35.68822 | 25.58449 | 25081 ft | 472 kts | 148° |
| 2026-05-05 20:47 | 35.66188 | 25.60881 | 25082 ft | 473 kts | 142° |
| 2026-05-05 20:47 | 35.63616 | 25.63408 | 25080 ft | 473 kts | 142° |
| 2026-05-05 20:47 | 35.60856 | 25.65585 | 25080 ft | 470 kts | 159° |
| 2026-05-05 20:48 | 35.57716 | 25.66513 | 25076 ft | 459 kts | 182° |
| 2026-05-05 20:48 | 35.54652 | 25.66060 | 25070 ft | 443 kts | 205° |
| 2026-05-05 20:48 | 35.52005 | 25.64333 | 25067 ft | 421 kts | 227° |
| 2026-05-05 20:48 | 35.50195 | 25.61659 | 25064 ft | 399 kts | 250° |
| 2026-05-05 20:49 | 35.49398 | 25.58494 | 25060 ft | 383 kts | 267° |
| 2026-05-05 20:49 | 35.48972 | 25.55267 | 25063 ft | 384 kts | 267° |
| 2026-05-05 20:49 | 35.48546 | 25.52017 | 25062 ft | 385 kts | 267° |
| 2026-05-05 20:49 | 35.48121 | 25.48765 | 25066 ft | 386 kts | 267° |
| 2026-05-05 20:50 | 35.47610 | 25.45559 | 25066 ft | 392 kts | 259° |
| 2026-05-05 20:50 | 35.46410 | 25.42512 | 25084 ft | 396 kts | 246° |
| 2026-05-05 20:50 | 35.45043 | 25.39662 | 25012 ft | 380 kts | 248° |
| 2026-05-05 20:50 | 35.43706 | 25.36827 | 24288 ft | 386 kts | 246° |
| 2026-05-05 20:51 | 35.42301 | 25.33981 | 23507 ft | 394 kts | 245° |
| 2026-05-05 20:51 | 35.40823 | 25.31117 | 22626 ft | 399 kts | 244° |
| 2026-05-05 20:51 | 35.39572 | 25.28154 | 21766 ft | 392 kts | 257° |
| 2026-05-05 20:51 | 35.39222 | 25.24915 | 20930 ft | 379 kts | 280° |
| 2026-05-05 20:52 | 35.39992 | 25.21891 | 20120 ft | 372 kts | 302° |
| 2026-05-05 20:52 | 35.41650 | 25.19473 | 19324 ft | 371 kts | 320° |
| 2026-05-05 20:52 | 35.43841 | 25.17801 | 18554 ft | 373 kts | 336° |
| 2026-05-05 20:52 | 35.46359 | 25.16969 | 17704 ft | 379 kts | 352° |
| 2026-05-05 20:53 | 35.49002 | 25.17140 | 16842 ft | 386 kts | 10° |
| 2026-05-05 20:53 | 35.51485 | 25.18393 | 16019 ft | 396 kts | 29° |
| 2026-05-05 20:53 | 35.53571 | 25.20650 | 15201 ft | 403 kts | 44° |
| 2026-05-05 20:53 | 35.55505 | 25.23148 | 14412 ft | 403 kts | 43° |
| 2026-05-05 20:54 | 35.57445 | 25.25644 | 13596 ft | 403 kts | 44° |
| 2026-05-05 20:54 | 35.59338 | 25.28179 | 12734 ft | 402 kts | 45° |
| 2026-05-05 20:54 | 35.61177 | 25.30768 | 11890 ft | 400 kts | 47° |
| 2026-05-05 20:54 | 35.62941 | 25.33352 | 11085 ft | 398 kts | 48° |
| 2026-05-05 20:55 | 35.64687 | 25.35982 | 10346 ft | 393 kts | 50° |
| 2026-05-05 20:55 | 35.66021 | 25.38900 | 9639 ft | 392 kts | 67° |
| 2026-05-05 20:55 | 35.66546 | 25.42136 | 8882 ft | 392 kts | 85° |
| 2026-05-05 20:55 | 35.66208 | 25.45467 | 8098 ft | 393 kts | 104° |
| 2026-05-05 20:56 | 35.65016 | 25.48498 | 7299 ft | 394 kts | 123° |
| 2026-05-05 20:56 | 35.63115 | 25.50856 | 6524 ft | 395 kts | 142° |
| 2026-05-05 20:56 | 35.60668 | 25.52359 | 5731 ft | 393 kts | 162° |
| 2026-05-05 20:56 | 35.57988 | 25.52828 | 5002 ft | 387 kts | 182° |
| 2026-05-05 20:57 | 35.55373 | 25.52240 | 4236 ft | 378 kts | 201° |
| 2026-05-05 20:57 | 35.53103 | 25.50712 | 3504 ft | 368 kts | 220° |
| 2026-05-05 20:57 | 35.51338 | 25.48605 | 3211 ft | 347 kts | 229° |
| 2026-05-05 20:57 | 35.49777 | 25.46436 | 2960 ft | 331 kts | 232° |
| 2026-05-05 20:58 | 35.48321 | 25.44312 | 2700 ft | 319 kts | 229° |
| 2026-05-05 20:58 | 35.46581 | 25.42679 | 2422 ft | 313 kts | 210° |
| 2026-05-05 20:58 | 35.44525 | 25.41889 | 2144 ft | 309 kts | 189° |
| 2026-05-05 20:58 | 35.42436 | 25.42015 | 1989 ft | 301 kts | 169° |
| 2026-05-05 20:59 | 35.40521 | 25.42875 | 1997 ft | 285 kts | 161° |
| 2026-05-05 20:59 | 35.38661 | 25.43254 | 2002 ft | 261 kts | 189° |
| 2026-05-05 20:59 | 35.37027 | 25.42688 | 1999 ft | 227 kts | 209° |
| 2026-05-05 20:59 | 35.35767 | 25.41749 | 2003 ft | 201 kts | 221° |
| 2026-05-05 21:00 | 35.34836 | 25.40672 | 2015 ft | 171 kts | 233° |
| 2026-05-05 21:00 | 35.34207 | 25.39600 | 2019 ft | 144 kts | 244° |
| 2026-05-05 21:00 | 35.33779 | 25.38545 | 2006 ft | 135 kts | 248° |
| 2026-05-05 21:00 | 35.33385 | 25.37513 | 2009 ft | 132 kts | 248° |
| 2026-05-05 21:01 | 35.33002 | 25.36493 | 2003 ft | 131 kts | 252° |
| 2026-05-05 21:01 | 35.32804 | 25.35415 | 2007 ft | 130 kts | 268° |
| 2026-05-05 21:01 | 35.32843 | 25.34309 | 2006 ft | 130 kts | 276° |
| 2026-05-05 21:01 | 35.32922 | 25.33199 | 2008 ft | 131 kts | 276° |
| 2026-05-05 21:02 | 35.32997 | 25.32104 | 2008 ft | 131 kts | 276° |
| 2026-05-05 21:02 | 35.33075 | 25.30997 | 2008 ft | 131 kts | 276° |
| 2026-05-05 21:02 | 35.33151 | 25.29885 | 2007 ft | 131 kts | 276° |
| 2026-05-05 21:02 | 35.33228 | 25.28764 | 1901 ft | 133 kts | 276° |
| 2026-05-05 21:03 | 35.33306 | 25.27645 | 1672 ft | 131 kts | 275° |
| 2026-05-05 21:03 | 35.33385 | 25.26533 | 1461 ft | 132 kts | 274° |
| 2026-05-05 21:03 | 35.33462 | 25.25420 | 1258 ft | 134 kts | 272° |
| 2026-05-05 21:03 | 35.33541 | 25.24265 | 1047 ft | 138 kts | 271° |
| 2026-05-05 21:04 | 35.33622 | 25.23083 | 837 ft | 140 kts | 272° |
| 2026-05-05 21:04 | 35.33705 | 25.21895 | 630 ft | 140 kts | 271° |
| 2026-05-05 21:04 | 35.33787 | 25.20712 | 420 ft | 139 kts | 272° |
| 2026-05-05 21:04 | 35.33868 | 25.19532 | 209 ft | 138 kts | 271° |
| 2026-05-05 21:05 | 35.33938 | 25.18386 | 87 ft | 128 kts | 276° |
| 2026-05-05 21:05 | 35.33999 | 25.17665 | 88 ft | 41 kts | 275° |
| 2026-05-05 21:05 | 35.34012 | 25.17441 | 88 ft | 23 kts | 275° |
| 2026-05-05 21:05 | 35.34026 | 25.17241 | 85 ft | 22 kts | 270° |
| 2026-05-05 21:06 | 35.33998 | 25.17111 | 87 ft | 0 kts | 240° |
| 2026-05-05 21:06 | 35.33997 | 25.17109 | 87 ft | 0 kts | 240° |
| 2026-05-05 21:09 | 35.33989 | 25.17093 | 87 ft | 4 kts | 240° |
| 2026-05-05 21:10 | 35.33956 | 25.17090 | 86 ft | 7 kts | 147° |
| 2026-05-05 21:10 | 35.33936 | 25.17158 | 85 ft | 10 kts | 95° |
| 2026-05-05 21:10 | 35.33900 | 25.17240 | 86 ft | 12 kts | 137° |
| 2026-05-05 21:10 | 35.33862 | 25.17295 | 86 ft | 6 kts | 116° |
| 2026-05-05 21:11 | 35.33858 | 25.17310 | 85 ft | 1 kts | 108° |
| 2026-05-05 21:11 | 35.33856 | 25.17315 | 84 ft | 0 kts | 112° |